Time;durP1;ratioP1;P1;durP2;ratioP2;P2;SDS_P1;SDS_P2;PMS_P1;PMS_P2;Temp;Humidity;BMP_temperature;BMP_pressure;BME280_temperature;BME280_humidity;BME280_pressure;Samples;Min_cycle;Max_cycle;Signal;HPM_P1;HPM_P2
2021/12/22 00:02:26;;;;;;;20.50;16.67;;;;;;;-1.62;100.00;101189.66;4991406;28;20259;-54
2021/12/22 00:04:51;;;;;;;18.43;16.40;;;;;;;-1.62;100.00;101184.59;4990903;28;20633;-54
2021/12/22 00:07:16;;;;;;;18.00;15.17;;;;;;;-1.61;100.00;101188.88;4988617;28;20376;-54
2021/12/22 00:09:43;;;;;;;18.03;15.00;;;;;;;-1.58;100.00;101193.25;4978239;28;20676;-55
2021/12/22 00:12:09;;;;;;;19.17;15.63;;;;;;;-1.58;100.00;101196.63;4988933;28;20190;-55
2021/12/22 00:14:35;;;;;;;18.37;16.33;;;;;;;-1.57;100.00;101188.22;4987471;28;20198;-54
2021/12/22 00:17:00;;;;;;;18.77;15.53;;;;;;;-1.56;100.00;101197.59;4987428;28;20688;-54
2021/12/22 00:19:26;;;;;;;20.40;16.53;;;;;;;-1.54;100.00;101206.19;4982407;28;20194;-55
2021/12/22 00:21:52;;;;;;;18.33;15.50;;;;;;;-1.53;100.00;101202.00;4987226;28;20193;-54
2021/12/22 00:24:17;;;;;;;18.90;15.17;;;;;;;-1.54;100.00;101195.16;4990571;28;20199;-55
2021/12/22 00:26:42;;;;;;;18.37;15.53;;;;;;;-1.51;100.00;101202.91;4988017;28;20312;-54
2021/12/22 00:29:08;;;;;;;20.37;16.70;;;;;;;-1.48;100.00;101205.63;4986078;28;20251;-54
2021/12/22 00:31:45;;;;;;;19.23;17.00;;;;;;;-1.48;100.00;101210.72;4987893;28;20533;-54
2021/12/22 00:34:16;;;;;;;18.33;16.30;;;;;;;-1.47;100.00;101211.59;5019619;28;20218;-54
2021/12/22 00:36:43;;;;;;;17.87;15.97;;;;;;;-1.47;100.00;101204.00;4989407;28;20218;-54
2021/12/22 00:39:08;;;;;;;18.33;16.37;;;;;;;-1.47;100.00;101211.59;4977757;28;20623;-55
2021/12/22 00:41:33;;;;;;;16.40;14.43;;;;;;;-1.45;100.00;101212.56;4987640;28;20195;-55
2021/12/22 00:43:59;;;;;;;17.13;15.30;;;;;;;-1.45;100.00;101207.50;4988730;28;20201;-54
2021/12/22 00:46:24;;;;;;;19.07;15.80;;;;;;;-1.45;100.00;101200.72;5011139;28;20221;-54
2021/12/22 00:48:50;;;;;;;19.80;15.73;;;;;;;-1.43;100.00;101203.34;5004446;28;20193;-54
2021/12/22 00:51:15;;;;;;;20.00;16.70;;;;;;;-1.44;100.00;101196.53;4989732;28;20400;-55
2021/12/22 00:53:40;;;;;;;19.57;16.27;;;;;;;-1.44;100.00;101194.88;4987746;28;20190;-54
2021/12/22 00:56:07;;;;;;;18.83;15.93;;;;;;;-1.45;100.00;101189.72;4986556;28;20196;-55
2021/12/22 00:58:33;;;;;;;23.73;17.50;;;;;;;-1.44;100.00;101184.72;4985293;28;20623;-55
2021/12/22 01:00:59;;;;;;;19.70;17.17;;;;;;;-1.43;100.00;101178.84;4973891;28;20189;-55
2021/12/22 01:03:25;;;;;;;22.37;18.27;;;;;;;-1.43;100.00;101181.38;4981126;28;20535;-55
2021/12/22 01:06:41;;;;;;;23.20;17.97;;;;;;;-1.44;100.00;101183.84;4972862;28;20379;-54
2021/12/22 01:09:06;;;;;;;20.30;17.40;;;;;;;-1.45;100.00;101182.09;4986616;28;20197;-54
2021/12/22 01:11:32;;;;;;;22.43;18.23;;;;;;;-1.45;100.00;101189.72;4994390;28;20278;-55
2021/12/22 01:13:58;;;;;;;20.10;16.47;;;;;;;-1.44;100.00;101192.31;4991590;28;20213;-54
2021/12/22 01:16:23;;;;;;;23.47;18.30;;;;;;;-1.42;100.00;101195.81;4987211;28;20225;-54
2021/12/22 01:18:49;;;;;;;23.20;18.00;;;;;;;-1.43;100.00;101200.81;4985347;28;20230;-54
2021/12/22 01:21:24;;;;;;;22.93;17.60;;;;;;;-1.46;100.00;101205.75;4987186;28;20209;-54
2021/12/22 01:24:13;;;;;;;21.90;17.77;;;;;;;-1.49;100.00;101188.66;4992240;28;20182;-54
2021/12/22 01:26:44;;;;;;;22.13;18.33;;;;;;;-1.49;100.00;101200.50;4988043;28;20281;-53
2021/12/22 01:29:10;;;;;;;18.87;16.67;;;;;;;-1.50;100.00;101201.28;4984655;28;20194;-54
2021/12/22 01:31:36;;;;;;;21.30;17.77;;;;;;;-1.50;100.00;101203.81;4990628;28;20190;-56
2021/12/22 01:34:01;;;;;;;20.80;17.90;;;;;;;-1.50;100.00;101209.75;4989218;28;20243;-56
2021/12/22 01:36:26;;;;;;;25.17;19.37;;;;;;;-1.53;100.00;101212.16;4986630;28;20724;-55
2021/12/22 01:38:52;;;;;;;24.60;19.90;;;;;;;-1.56;100.00;101207.75;4991902;28;20588;-56
2021/12/22 01:41:17;;;;;;;24.23;19.10;;;;;;;-1.64;100.00;101210.66;4990609;28;20240;-54
2021/12/22 01:43:43;;;;;;;21.50;18.07;;;;;;;-1.69;100.00;101215.47;4992056;28;20509;-57
2021/12/22 01:49:16;;;;;;;21.90;17.43;;;;;;;-1.75;100.00;101222.78;4991688;28;20189;-54
2021/12/22 01:52:03;;;;;;;22.53;18.40;;;;;;;-1.71;100.00;101217.06;4986075;28;20272;-56
2021/12/22 01:54:34;;;;;;;26.93;20.00;;;;;;;-1.71;100.00;101217.06;4988998;28;20185;-56
2021/12/22 01:57:06;;;;;;;23.33;19.27;;;;;;;-1.72;100.00;101217.84;4981065;28;20646;-57
2021/12/22 01:59:32;;;;;;;25.40;19.80;;;;;;;-1.78;100.00;101226.00;4990421;28;20252;-56
2021/12/22 02:01:59;;;;;;;24.90;19.23;;;;;;;-1.80;100.00;101226.69;5019678;28;20224;-56
2021/12/22 02:04:25;;;;;;;24.20;19.37;;;;;;;-1.84;100.00;101229.06;4989337;28;20249;-56
2021/12/22 02:06:50;;;;;;;23.37;19.13;;;;;;;-1.86;100.00;101228.09;4985802;28;20618;-54
2021/12/22 02:09:32;;;;;;;22.30;18.43;;;;;;;-1.80;100.00;101222.47;4988146;28;20276;-54
2021/12/22 02:11:57;;;;;;;25.57;20.33;;;;;;;-1.80;100.00;101229.25;4988653;28;20193;-55
2021/12/22 02:14:23;;;;;;;27.77;20.67;;;;;;;-1.90;100.00;101222.75;4991505;28;20192;-54
2021/12/22 02:16:48;;;;;;;23.30;18.90;;;;;;;-1.96;100.00;101218.22;4985421;28;20387;-54
2021/12/22 02:19:14;;;;;;;23.77;18.97;;;;;;;-1.96;100.00;101213.16;4990565;28;20276;-55
2021/12/22 02:21:46;;;;;;;22.53;17.87;;;;;;;-1.94;100.00;101210.69;4987627;28;20228;-56
2021/12/22 02:24:12;;;;;;;25.43;18.93;;;;;;;-1.92;100.00;101214.19;4989652;28;20193;-55
2021/12/22 02:29:08;;;;;;;29.73;22.83;;;;;;;-1.95;100.00;101211.47;4991071;28;20224;-54
2021/12/22 02:31:40;;;;;;;28.77;21.00;;;;;;;-2.00;100.00;101217.19;4988363;28;20243;-55
2021/12/22 02:34:06;;;;;;;27.37;21.27;;;;;;;-2.09;100.00;101205.63;4990025;28;20276;-54
2021/12/22 02:36:38;;;;;;;25.60;19.87;;;;;;;-2.15;100.00;101203.63;4990794;28;20542;-54
2021/12/22 02:39:05;;;;;;;27.00;20.90;;;;;;;-2.21;100.00;101206.69;4987725;28;20185;-56
2021/12/22 02:41:32;;;;;;;26.50;20.80;;;;;;;-2.26;100.00;101205.53;4983208;28;20222;-56
2021/12/22 02:43:59;;;;;;;24.83;20.10;;;;;;;-2.29;100.00;101197.72;4990684;28;20641;-54
2021/12/22 02:46:30;;;;;;;28.47;21.60;;;;;;;-2.30;100.00;101208.66;4976316;28;20220;-56
2021/12/22 02:48:55;;;;;;;25.73;20.00;;;;;;;-2.30;100.00;101213.72;4989825;28;20192;-54
2021/12/22 02:51:22;;;;;;;28.60;20.57;;;;;;;-2.25;100.00;101211.47;4988418;28;20189;-54
2021/12/22 02:54:02;;;;;;;26.97;21.23;;;;;;;-2.26;100.00;101204.63;4988783;28;20216;-54
2021/12/22 02:59:03;;;;;;;28.53;22.67;;;;;;;-2.34;100.00;101205.09;4984271;28;20268;-55
2021/12/22 03:04:09;;;;;;;31.70;22.03;;;;;;;-2.33;100.00;101205.94;4985362;28;20344;-54
2021/12/22 03:06:59;;;;;;;25.17;19.60;;;;;;;-2.35;100.00;101205.00;4988593;28;20191;-54
2021/12/22 03:09:32;;;;;;;22.57;19.13;;;;;;;-2.34;100.00;101210.16;4983786;28;20189;-54
2021/12/22 03:12:02;;;;;;;22.40;19.43;;;;;;;-2.30;100.00;101203.59;4989121;28;20193;-54
2021/12/22 03:14:28;;;;;;;24.87;20.27;;;;;;;-2.30;100.00;101207.03;4985671;28;20593;-54
2021/12/22 03:16:55;;;;;;;23.77;20.07;;;;;;;-2.31;100.00;101212.88;4982352;28;20299;-56
2021/12/22 03:19:37;;;;;;;24.67;19.83;;;;;;;-2.31;100.00;101220.47;4985550;28;20204;-55
2021/12/22 03:22:07;;;;;;;22.40;18.23;;;;;;;-2.29;100.00;101228.16;4989172;28;20273;-55
2021/12/22 03:24:35;;;;;;;25.27;20.37;;;;;;;-2.33;100.00;101219.50;4988082;28;20649;-55
2021/12/22 03:27:03;;;;;;;24.63;19.83;;;;;;;-2.34;100.00;101222.84;4980124;28;20217;-55
2021/12/22 03:29:34;;;;;;;25.40;21.27;;;;;;;-2.34;100.00;101220.28;4988141;28;20189;-56
2021/12/22 03:31:59;;;;;;;23.43;19.80;;;;;;;-2.34;100.00;101221.94;5016336;28;20667;-54
2021/12/22 03:34:25;;;;;;;25.80;20.87;;;;;;;-2.35;100.00;101218.53;4984282;28;20217;-55
2021/12/22 03:36:50;;;;;;;24.43;19.63;;;;;;;-2.36;100.00;101215.94;4978874;28;20655;-54
2021/12/22 03:39:16;;;;;;;23.03;18.93;;;;;;;-2.37;100.00;101217.56;4987851;28;20207;-54
2021/12/22 03:41:44;;;;;;;23.53;19.47;;;;;;;-2.37;100.00;101222.66;4993533;28;20612;-55
2021/12/22 03:44:10;;;;;;;22.17;18.30;;;;;;;-2.38;100.00;101217.50;4985011;28;20661;-57
2021/12/22 03:46:37;;;;;;;23.93;19.53;;;;;;;-2.40;100.00;101212.31;4986818;28;20205;-54
2021/12/22 03:49:07;;;;;;;25.63;21.07;;;;;;;-2.45;100.00;101213.72;4985468;28;20197;-54
2021/12/22 03:51:33;;;;;;;26.93;20.23;;;;;;;-2.49;100.00;101206.72;4987339;28;20196;-54
2021/12/22 03:53:58;;;;;;;25.03;20.30;;;;;;;-2.52;100.00;101212.50;4987960;28;20211;-54
2021/12/22 03:56:24;;;;;;;23.93;20.13;;;;;;;-2.54;100.00;101209.00;4985967;28;20796;-54
2021/12/22 03:58:49;;;;;;;22.37;19.50;;;;;;;-2.58;100.00;101208.72;4989667;28;20196;-54
2021/12/22 04:01:15;;;;;;;23.30;19.17;;;;;;;-2.65;100.00;101198.22;4987888;28;20205;-54
2021/12/22 04:03:43;;;;;;;24.13;19.87;;;;;;;-2.71;100.00;101196.97;4988410;28;20262;-54
2021/12/22 04:06:09;;;;;;;21.07;17.57;;;;;;;-2.71;100.00;101197.84;4983700;28;20225;-54
2021/12/22 04:08:34;;;;;;;23.03;17.20;;;;;;;-2.69;100.00;101205.53;4986196;28;20748;-54
2021/12/22 04:11:00;;;;;;;20.03;16.70;;;;;;;-2.67;100.00;101193.84;4981591;28;20213;-54
2021/12/22 04:13:25;;;;;;;20.13;16.67;;;;;;;-2.66;100.00;101193.06;4988077;28;20198;-55
2021/12/22 04:15:50;;;;;;;25.03;19.70;;;;;;;-2.66;100.00;101186.31;4987874;28;20641;-54
2021/12/22 04:18:17;;;;;;;23.37;18.83;;;;;;;-2.70;100.00;101194.53;4987278;28;20205;-54
2021/12/22 04:20:42;;;;;;;24.87;19.47;;;;;;;-2.76;100.00;101196.69;4981458;28;20657;-55
2021/12/22 04:23:08;;;;;;;22.43;18.93;;;;;;;-2.81;100.00;101193.91;4981374;28;20197;-56
2021/12/22 04:25:35;;;;;;;21.90;18.83;;;;;;;-2.84;100.00;101193.72;4994472;28;20197;-55
2021/12/22 04:28:06;;;;;;;20.90;17.53;;;;;;;-2.85;100.00;101202.09;4985885;28;20621;-56
2021/12/22 04:30:38;;;;;;;19.23;16.60;;;;;;;-2.83;100.00;101197.09;5019773;28;20580;-54
2021/12/22 04:33:04;;;;;;;19.60;17.10;;;;;;;-2.80;100.00;101204.91;4980540;28;20207;-54
2021/12/22 04:35:29;;;;;;;19.80;16.97;;;;;;;-2.78;100.00;101201.66;4983801;28;20647;-57
2021/12/22 04:37:55;;;;;;;21.17;17.63;;;;;;;-2.79;100.00;101204.13;4978005;28;21234;-56
2021/12/22 04:40:21;;;;;;;20.03;17.43;;;;;;;-2.83;100.00;101203.06;4983019;28;20552;-54
2021/12/22 04:42:47;;;;;;;22.33;17.87;;;;;;;-2.83;100.00;101204.72;4988671;28;20622;-56
2021/12/22 04:45:14;;;;;;;19.80;16.77;;;;;;;-2.82;100.00;101206.47;4992012;28;20235;-54
2021/12/22 04:47:40;;;;;;;18.60;15.83;;;;;;;-2.78;100.00;101201.66;4995667;28;20692;-57
2021/12/22 04:50:11;;;;;;;21.90;17.87;;;;;;;-2.74;100.00;101197.69;4993038;28;20224;-54
2021/12/22 04:52:53;;;;;;;19.83;17.23;;;;;;;-2.70;100.00;101203.78;4989793;28;20213;-56
2021/12/22 04:55:19;;;;;;;20.40;17.23;;;;;;;-2.66;100.00;101201.53;4992707;28;20215;-56
2021/12/22 04:57:44;;;;;;;20.30;17.30;;;;;;;-2.63;100.00;101199.19;4988830;28;20201;-55
2021/12/22 05:00:13;;;;;;;22.27;18.00;;;;;;;-2.61;100.00;101195.09;4980703;28;20189;-56
2021/12/22 05:02:38;;;;;;;23.10;17.47;;;;;;;-2.61;100.00;101189.13;4991232;28;20185;-54
2021/12/22 05:05:05;;;;;;;21.80;17.37;;;;;;;-2.62;100.00;101200.03;4991241;28;20583;-54
2021/12/22 05:07:30;;;;;;;20.63;17.20;;;;;;;-2.62;100.00;101200.03;4992170;28;20725;-56
2021/12/22 05:09:56;;;;;;;19.00;16.43;;;;;;;-2.64;100.00;101211.75;4990784;28;20193;-55
2021/12/22 05:12:21;;;;;;;21.30;17.13;;;;;;;-2.66;100.00;101213.34;4998288;28;20176;-55
2021/12/22 05:14:49;;;;;;;20.73;17.60;;;;;;;-2.67;100.00;101207.38;5013816;28;20177;-54
2021/12/22 05:17:27;;;;;;;20.80;16.57;;;;;;;-2.67;100.00;101202.31;4998280;28;20288;-54
2021/12/22 05:19:53;;;;;;;20.20;16.70;;;;;;;-2.66;100.00;101199.00;4988894;28;20196;-54
2021/12/22 05:22:18;;;;;;;19.70;17.37;;;;;;;-2.64;100.00;101194.00;4986815;28;20181;-54
2021/12/22 05:24:43;;;;;;;19.47;17.13;;;;;;;-2.62;100.00;101207.66;4988521;28;20193;-54
2021/12/22 05:27:11;;;;;;;21.30;17.50;;;;;;;-2.59;100.00;101207.84;4989799;28;20259;-57
2021/12/22 05:29:38;;;;;;;21.27;17.77;;;;;;;-2.61;100.00;101215.34;4988744;28;20204;-56
2021/12/22 05:32:04;;;;;;;21.87;16.67;;;;;;;-2.64;100.00;101204.13;4986835;28;20588;-56
2021/12/22 05:34:30;;;;;;;19.97;17.10;;;;;;;-2.64;100.00;101199.06;4988931;28;20280;-55
2021/12/22 05:36:55;;;;;;;22.40;18.43;;;;;;;-2.68;100.00;101199.69;4989913;28;20301;-56
2021/12/22 05:39:21;;;;;;;22.87;18.27;;;;;;;-2.75;100.00;101198.47;5020106;28;20196;-56
2021/12/22 05:41:46;;;;;;;20.03;17.17;;;;;;;-2.75;100.00;101193.38;4990466;28;20181;-56
2021/12/22 05:44:11;;;;;;;23.87;18.50;;;;;;;-2.71;100.00;101186.84;4989433;28;20196;-56
2021/12/22 05:46:37;;;;;;;22.70;18.83;;;;;;;-2.68;100.00;101181.97;4989078;28;20185;-56
2021/12/22 05:49:02;;;;;;;21.77;18.03;;;;;;;-2.65;100.00;101187.22;4985966;28;20224;-53
2021/12/22 05:51:30;;;;;;;22.93;18.60;;;;;;;-2.62;100.00;101184.84;4989851;28;20645;-55
2021/12/22 05:53:56;;;;;;;24.33;18.40;;;;;;;-2.58;100.00;101189.31;4996105;28;20196;-54
2021/12/22 05:56:21;;;;;;;20.97;17.27;;;;;;;-2.55;100.00;101179.34;4986287;28;20185;-54
2021/12/22 05:58:46;;;;;;;23.37;18.40;;;;;;;-2.52;100.00;101177.00;4984833;28;20194;-54
2021/12/22 06:01:12;;;;;;;20.27;17.40;;;;;;;-2.49;100.00;101183.91;4988774;28;20184;-54
2021/12/22 06:03:37;;;;;;;20.43;17.50;;;;;;;-2.46;100.00;101186.63;4988247;28;20189;-56
2021/12/22 06:06:04;;;;;;;20.80;16.90;;;;;;;-2.44;100.00;101182.53;4984552;28;20192;-55
2021/12/22 06:08:29;;;;;;;20.57;17.27;;;;;;;-2.45;100.00;101183.31;5004469;28;20610;-56
2021/12/22 06:10:54;;;;;;;21.73;17.27;;;;;;;-2.43;100.00;101178.31;4986583;28;20204;-53
2021/12/22 06:13:20;;;;;;;19.93;16.00;;;;;;;-2.41;100.00;101186.88;4988131;28;20185;-56
2021/12/22 06:15:45;;;;;;;19.30;15.77;;;;;;;-2.38;100.00;101189.59;4989833;28;20231;-53
2021/12/22 06:18:11;;;;;;;19.83;16.03;;;;;;;-2.35;100.00;101192.31;4990177;28;20228;-56
2021/12/22 06:20:37;;;;;;;20.47;16.90;;;;;;;-2.34;100.00;101184.81;4991145;28;20181;-54
2021/12/22 06:23:05;;;;;;;21.63;17.57;;;;;;;-2.33;100.00;101181.47;4976677;28;20190;-55
2021/12/22 06:25:31;;;;;;;22.47;18.17;;;;;;;-2.34;100.00;101182.25;4990031;28;20198;-54
2021/12/22 06:27:56;;;;;;;22.03;17.60;;;;;;;-2.36;100.00;101183.84;4993942;28;20205;-55
2021/12/22 06:30:23;;;;;;;21.63;17.30;;;;;;;-2.38;100.00;101187.94;4988416;28;20215;-54
2021/12/22 06:32:49;;;;;;;22.37;17.90;;;;;;;-2.38;100.00;101193.00;4981637;28;20182;-55
2021/12/22 06:35:15;;;;;;;23.00;18.10;;;;;;;-2.37;100.00;101194.75;4972230;28;20182;-54
2021/12/22 06:37:43;;;;;;;24.43;18.00;;;;;;;-2.38;100.00;101194.69;4971083;28;20198;-54
2021/12/22 06:40:09;;;;;;;23.00;18.03;;;;;;;-2.41;100.00;101197.03;4974687;28;20562;-54
2021/12/22 06:42:34;;;;;;;26.03;20.93;;;;;;;-2.42;100.00;101200.34;4982344;28;20192;-54
2021/12/22 06:45:00;;;;;;;23.13;18.37;;;;;;;-2.44;100.00;101205.34;4979307;28;20199;-53
2021/12/22 06:47:25;;;;;;;22.77;18.90;;;;;;;-2.44;100.00;101215.47;4991915;28;20217;-55
2021/12/22 06:49:51;;;;;;;27.37;20.67;;;;;;;-2.44;100.00;101218.03;4986600;28;20193;-54
2021/12/22 06:52:16;;;;;;;28.90;21.70;;;;;;;-2.45;100.00;101226.41;4985194;28;20709;-55
2021/12/22 06:54:42;;;;;;;32.63;23.10;;;;;;;-2.54;100.00;101224.19;4991099;28;20714;-53
2021/12/22 06:57:07;;;;;;;27.10;22.00;;;;;;;-2.63;100.00;101223.63;4973856;28;20213;-54
2021/12/22 06:59:33;;;;;;;28.97;22.43;;;;;;;-2.73;100.00;101218.81;4987256;28;20584;-53
2021/12/22 07:01:58;;;;;;;32.47;23.47;;;;;;;-2.82;100.00;101226.72;4987312;28;20193;-54
2021/12/22 07:04:24;;;;;;;29.10;22.87;;;;;;;-2.88;100.00;101227.22;5015016;28;20195;-54
2021/12/22 07:06:49;;;;;;;28.20;21.93;;;;;;;-2.93;100.00;101242.16;4980510;28;20584;-53
2021/12/22 07:09:15;;;;;;;26.50;20.73;;;;;;;-2.95;100.00;101256.38;4981834;28;20220;-54
2021/12/22 07:11:41;;;;;;;29.13;21.27;;;;;;;-2.92;100.00;101264.19;4986723;28;20669;-55
2021/12/22 07:14:08;;;;;;;26.63;20.43;;;;;;;-2.85;100.00;101269.59;4988467;28;20186;-54
2021/12/22 07:16:34;;;;;;;27.67;21.73;;;;;;;-2.82;100.00;101274.84;4990258;28;20189;-55
2021/12/22 07:18:59;;;;;;;30.70;22.80;;;;;;;-2.80;100.00;101283.44;4982112;28;20186;-56
2021/12/22 07:21:25;;;;;;;28.50;23.50;;;;;;;-2.82;100.00;101278.28;4979949;28;20196;-55
2021/12/22 07:23:51;;;;;;;30.13;21.83;;;;;;;-2.80;100.00;101284.28;4977039;28;20588;-54
2021/12/22 07:26:16;;;;;;;29.47;22.50;;;;;;;-2.79;100.00;101270.00;4988394;28;20195;-56
2021/12/22 07:28:46;;;;;;;28.67;21.73;;;;;;;-2.77;100.00;101271.81;4992706;28;20227;-56
2021/12/22 07:31:14;;;;;;;27.97;21.57;;;;;;;-2.72;100.00;101263.63;4980653;28;20664;-55
2021/12/22 07:33:46;;;;;;;27.00;21.43;;;;;;;-2.65;100.00;101265.78;4985654;28;20185;-56
2021/12/22 07:36:12;;;;;;;26.33;20.47;;;;;;;-2.61;100.00;101266.03;4989512;28;20193;-57
2021/12/22 07:38:40;;;;;;;25.20;20.27;;;;;;;-2.56;100.00;101268.84;4995539;28;20209;-56
2021/12/22 07:41:08;;;;;;;26.07;20.10;;;;;;;-2.53;100.00;101269.03;4988200;28;20196;-54
2021/12/22 07:43:35;;;;;;;22.33;18.40;;;;;;;-2.49;100.00;101275.16;4989325;28;20208;-54
2021/12/22 07:46:01;;;;;;;24.53;18.97;;;;;;;-2.46;100.00;101282.94;4980827;28;20972;-55
2021/12/22 07:48:27;;;;;;;22.83;18.73;;;;;;;-2.42;100.00;101277.25;4971378;28;20298;-54
2021/12/22 07:50:53;;;;;;;27.83;20.77;;;;;;;-2.39;100.00;101279.97;5000759;28;20216;-54
2021/12/22 07:53:19;;;;;;;26.40;20.90;;;;;;;-2.42;100.00;101278.94;4988013;28;20197;-54
2021/12/22 07:55:45;;;;;;;26.27;19.87;;;;;;;-2.44;100.00;101273.78;4975175;28;20295;-54
2021/12/22 07:58:10;;;;;;;27.43;21.50;;;;;;;-2.43;100.00;101262.88;4988765;28;20741;-54
2021/12/22 08:00:36;;;;;;;27.87;22.13;;;;;;;-2.45;100.00;101257.69;4979552;28;20615;-54
2021/12/22 08:03:02;;;;;;;28.40;20.90;;;;;;;-2.42;100.00;101253.59;4983974;28;20197;-54
2021/12/22 08:05:28;;;;;;;29.77;22.30;;;;;;;-2.40;100.00;101254.56;4990607;28;20233;-55
2021/12/22 08:07:56;;;;;;;28.50;21.97;;;;;;;-2.42;100.00;101251.91;4968718;28;20566;-54
2021/12/22 08:10:21;;;;;;;27.47;22.23;;;;;;;-2.41;100.00;101242.66;4980389;28;20188;-54
2021/12/22 08:12:47;;;;;;;28.33;21.83;;;;;;;-2.44;100.00;101238.28;4981884;28;20240;-54
2021/12/22 08:15:13;;;;;;;27.20;21.27;;;;;;;-2.48;100.00;101249.03;4986379;28;20189;-56
2021/12/22 08:17:38;;;;;;;27.47;20.80;;;;;;;-2.53;100.00;101252.94;4989944;28;20284;-56
2021/12/22 08:20:04;;;;;;;27.87;21.27;;;;;;;-2.54;100.00;101246.13;4976607;28;20272;-54
2021/12/22 08:22:30;;;;;;;27.73;21.47;;;;;;;-2.53;100.00;101246.22;4984421;28;20244;-54
2021/12/22 08:24:55;;;;;;;24.50;18.97;;;;;;;-2.51;100.00;101243.78;4972250;28;20193;-54
2021/12/22 08:27:22;;;;;;;24.67;19.37;;;;;;;-2.49;100.00;101237.13;4989776;28;20235;-54
2021/12/22 08:29:49;;;;;;;27.60;21.20;;;;;;;-2.46;100.00;101232.25;4986312;28;20279;-55
2021/12/22 08:32:14;;;;;;;25.33;19.43;;;;;;;-2.41;100.00;101230.00;4981592;28;20193;-55
2021/12/22 08:34:42;;;;;;;26.40;20.70;;;;;;;-2.37;100.00;101235.31;4986931;28;20189;-54
2021/12/22 08:39:55;;;;;;;24.93;19.70;;;;;;;-2.27;100.00;101230.81;4988317;28;20227;-55
2021/12/22 08:42:22;;;;;;;25.80;19.90;;;;;;;-2.26;100.00;101235.97;4986267;28;20193;-55
2021/12/22 08:44:49;;;;;;;27.07;20.30;;;;;;;-2.21;100.00;101243.81;4988429;28;20217;-56
2021/12/22 08:47:15;;;;;;;22.13;18.17;;;;;;;-2.16;100.00;101244.97;4991299;28;20282;-56
2021/12/22 08:49:42;;;;;;;25.33;20.37;;;;;;;-2.10;100.00;101241.91;4988377;28;20201;-54
2021/12/22 08:52:07;;;;;;;26.97;20.67;;;;;;;-2.01;100.00;101244.97;4983995;28;20650;-54
2021/12/22 08:54:33;;;;;;;24.07;19.03;;;;;;;-1.91;100.00;101238.78;4984754;28;20196;-54
2021/12/22 08:56:58;;;;;;;25.93;20.10;;;;;;;-1.82;100.00;101239.31;4984806;28;20240;-54
2021/12/22 08:59:24;;;;;;;22.47;17.97;;;;;;;-1.74;100.00;101235.53;4983673;28;20189;-56
2021/12/22 09:01:51;;;;;;;25.30;19.63;;;;;;;-1.63;100.00;101241.22;4986004;28;20187;-56
2021/12/22 09:04:17;;;;;;;20.33;16.50;;;;;;;-1.51;100.00;101243.53;4983761;28;20277;-56
2021/12/22 09:06:42;;;;;;;24.93;18.97;;;;;;;-1.40;100.00;101250.13;4987003;28;20289;-53
2021/12/22 09:09:09;;;;;;;22.17;18.47;;;;;;;-1.33;100.00;101253.88;4984238;28;20257;-56
2021/12/22 09:11:36;;;;;;;23.90;19.73;;;;;;;-1.25;100.00;101256.81;4983378;28;20248;-54
2021/12/22 09:14:03;;;;;;;23.47;18.87;;;;;;;-1.18;100.00;101248.72;4982075;28;20216;-54
2021/12/22 09:16:30;;;;;;;25.40;19.33;;;;;;;-1.13;100.00;101244.78;4987122;28;20746;-54
2021/12/22 09:18:56;;;;;;;27.03;21.77;;;;;;;-1.11;100.00;101247.41;4980051;28;20185;-54
2021/12/22 09:21:22;;;;;;;26.03;21.00;;;;;;;-1.08;100.00;101253.53;4986761;28;20185;-54
2021/12/22 09:23:48;;;;;;;24.00;20.33;;;;;;;-1.05;100.00;101257.00;4986246;28;20718;-54
2021/12/22 09:26:15;;;;;;;26.30;21.37;;;;;;;-1.05;100.00;101250.28;4983929;28;20788;-54
2021/12/22 09:28:40;;;;;;;28.47;22.60;;;;;;;-1.09;100.00;101258.53;4985799;28;20249;-54
2021/12/22 09:31:07;;;;;;;25.40;19.90;;;;;;;-1.08;100.00;101261.16;4987128;28;20220;-54
2021/12/22 09:33:33;;;;;;;24.07;19.53;;;;;;;-1.02;100.00;101259.72;4987244;28;20964;-56
2021/12/22 09:35:59;;;;;;;22.57;18.53;;;;;;;-0.94;100.00;101259.34;4986352;28;20251;-56
2021/12/22 09:38:24;;;;;;;24.53;19.23;;;;;;;-0.84;100.00;101253.09;4988854;28;20201;-54
2021/12/22 09:40:50;;;;;;;25.43;20.53;;;;;;;-0.78;100.00;101255.06;4989358;28;20198;-54
2021/12/22 09:43:16;;;;;;;24.17;19.40;;;;;;;-0.78;100.00;101260.16;4990485;28;20194;-54
2021/12/22 09:45:46;;;;;;;25.17;19.83;;;;;;;-0.76;100.00;101248.41;4989118;28;20249;-54
2021/12/22 09:50:51;;;;;;;;;;;;;;;;;;;;;
2021/12/22 09:53:24;;;;;;;27.30;21.47;;;;;;;-0.77;100.00;101239.03;4991419;28;20202;-54
2021/12/22 09:55:50;;;;;;;29.07;23.07;;;;;;;-0.80;100.00;101237.22;5000218;28;20192;-55
2021/12/22 09:58:17;;;;;;;27.20;22.37;;;;;;;-0.78;100.00;101237.28;5013847;28;20234;-55
2021/12/22 10:00:44;;;;;;;26.40;20.77;;;;;;;-0.71;100.00;101235.94;4998844;28;20194;-55
2021/12/22 10:03:11;;;;;;;27.53;21.73;;;;;;;-0.64;100.00;101228.72;4986332;28;20697;-57
2021/12/22 10:05:38;;;;;;;31.10;22.93;;;;;;;-0.61;100.00;101233.09;4987317;28;20186;-55
2021/12/22 10:08:20;;;;;;;30.47;22.17;;;;;;;-0.57;100.00;101231.59;4989885;28;20662;-54
2021/12/22 10:11:06;;;;;;;27.07;21.07;;;;;;;-0.56;100.00;101239.28;4989228;28;20279;-54
2021/12/22 10:13:32;;;;;;;24.63;20.63;;;;;;;-0.47;100.00;101227.06;4979538;28;20695;-55
2021/12/22 10:15:58;;;;;;;23.20;19.57;;;;;;;-0.39;100.00;101218.94;4984812;28;20685;-54
2021/12/22 10:18:29;;;;;;;24.10;19.53;;;;;;;-0.32;100.00;101215.91;5017109;28;20281;-55
2021/12/22 10:21:11;;;;;;;25.03;20.23;;;;;;;-0.30;100.00;101211.75;4987409;28;20202;-55
2021/12/22 10:23:40;;;;;;;23.93;19.37;;;;;;;-0.31;100.00;101210.88;4987154;28;20549;-54
2021/12/22 10:26:09;;;;;;;22.77;18.50;;;;;;;-0.25;100.00;101212.00;4983983;28;20602;-54
2021/12/22 10:29:05;;;;;;;23.83;18.43;;;;;;;-0.18;100.00;101204.75;4987333;28;20714;-57
2021/12/22 10:31:33;;;;;;;24.50;19.90;;;;;;;-0.12;99.57;101209.25;4966973;28;20199;-56
2021/12/22 10:34:03;;;;;;;23.47;20.53;;;;;;;-0.11;99.53;101200.84;4982032;28;20199;-56
2021/12/22 10:36:28;;;;;;;23.83;18.90;;;;;;;-0.07;99.69;101204.41;4986450;28;20664;-56
2021/12/22 10:39:00;;;;;;;24.97;20.17;;;;;;;-0.03;99.20;101194.44;4988015;28;20279;-54
2021/12/22 10:41:30;;;;;;;25.73;20.17;;;;;;;0.03;99.18;101187.91;4990572;28;20192;-55
2021/12/22 10:43:57;;;;;;;24.10;19.67;;;;;;;0.07;99.05;101185.59;4986524;28;20189;-58
2021/12/22 10:46:27;;;;;;;23.17;19.60;;;;;;;0.13;99.00;101190.09;4987938;28;20247;-54
2021/12/22 10:49:17;;;;;;;25.10;20.27;;;;;;;0.19;98.73;101177.66;4988036;28;20221;-54
2021/12/22 10:52:02;;;;;;;22.40;18.57;;;;;;;0.26;98.70;101184.78;4986670;28;20228;-54
2021/12/22 10:54:36;;;;;;;23.70;18.93;;;;;;;0.33;98.31;101182.53;4983391;28;20190;-54
2021/12/22 10:57:04;;;;;;;21.47;17.60;;;;;;;0.38;98.14;101187.03;4986913;28;20209;-54
2021/12/22 10:59:49;;;;;;;24.70;19.77;;;;;;;0.45;97.63;101185.66;4989609;28;20195;-54
2021/12/22 11:02:26;;;;;;;22.13;18.07;;;;;;;0.53;97.54;101186.88;4983408;28;20189;-54
2021/12/22 11:04:53;;;;;;;21.50;17.83;;;;;;;0.60;97.18;101171.09;4987029;28;20654;-54
2021/12/22 11:07:27;;;;;;;21.20;17.07;;;;;;;0.69;96.96;101169.75;4987688;28;20213;-55
2021/12/22 11:09:52;;;;;;;20.23;16.70;;;;;;;0.76;97.05;101166.69;4990126;28;20181;-54
2021/12/22 11:12:35;;;;;;;19.77;16.67;;;;;;;0.80;96.68;101168.56;4978603;28;20247;-54
2021/12/22 11:15:01;;;;;;;23.60;18.07;;;;;;;0.72;96.38;101163.13;4978620;28;20193;-56
2021/12/22 11:17:26;;;;;;;24.90;19.40;;;;;;;0.66;96.27;101157.75;5010061;28;20335;-54
2021/12/22 11:19:58;;;;;;;24.80;20.63;;;;;;;0.67;96.09;101164.59;4981982;28;20247;-54
2021/12/22 11:23:00;;;;;;;23.70;19.80;;;;;;;0.73;95.88;101151.25;4977329;28;20252;-54
2021/12/22 11:25:27;;;;;;;23.83;18.77;;;;;;;0.78;95.71;101152.34;4982294;28;20235;-55